sensor_id;sensor_type;location;lat;lon;timestamp;pressure;altitude;pressure_sealevel;temperature;humidity
37206;BME280;23099;42.636;23.198;2023-04-27T04:24:22;91819.56;;;5.50;67.26
37206;BME280;23099;42.636;23.198;2023-04-27T04:26:49;91821.88;;;5.52;62.84
37206;BME280;23099;42.636;23.198;2023-04-27T04:33:07;91827.19;;;5.40;64.62
37206;BME280;23099;42.636;23.198;2023-04-27T04:35:36;91836.50;;;5.46;63.45
37206;BME280;23099;42.636;23.198;2023-04-27T04:38:03;91826.63;;;5.34;63.48
37206;BME280;23099;42.636;23.198;2023-04-27T04:40:30;91837.16;;;5.43;60.83
37206;BME280;23099;42.636;23.198;2023-04-27T04:42:56;91836.94;;;5.48;61.25
37206;BME280;23099;42.636;23.198;2023-04-27T04:45:23;91838.47;;;5.37;58.71
37206;BME280;23099;42.636;23.198;2023-04-27T04:47:50;91847.31;;;5.41;59.93
37206;BME280;23099;42.636;23.198;2023-04-27T04:50:20;91844.31;;;5.30;61.06
37206;BME280;23099;42.636;23.198;2023-04-27T04:52:47;91852.94;;;5.39;60.67
37206;BME280;23099;42.636;23.198;2023-04-27T04:55:14;91858.03;;;5.44;58.49
37206;BME280;23099;42.636;23.198;2023-04-27T04:57:41;91858.00;;;5.56;59.69
37206;BME280;23099;42.636;23.198;2023-04-27T05:00:09;91851.72;;;5.49;59.63
37206;BME280;23099;42.636;23.198;2023-04-27T05:02:38;91858.66;;;5.53;58.10
37206;BME280;23099;42.636;23.198;2023-04-27T05:05:05;91851.81;;;5.52;59.18
37206;BME280;23099;42.636;23.198;2023-04-27T05:07:33;91855.69;;;5.43;58.68
37206;BME280;23099;42.636;23.198;2023-04-27T05:10:00;91860.88;;;5.51;59.80
37206;BME280;23099;42.636;23.198;2023-04-27T05:12:27;91865.72;;;5.49;57.59
37206;BME280;23099;42.636;23.198;2023-04-27T05:14:54;91866.41;;;5.58;57.72
37206;BME280;23099;42.636;23.198;2023-04-27T05:17:21;91871.38;;;5.60;56.65
37206;BME280;23099;42.636;23.198;2023-04-27T05:19:47;91869.16;;;5.74;57.97
37206;BME280;23099;42.636;23.198;2023-04-27T05:22:14;91871.47;;;5.88;55.63
37206;BME280;23099;42.636;23.198;2023-04-27T05:24:42;91879.75;;;5.98;56.94
37206;BME280;23099;42.636;23.198;2023-04-27T05:27:09;91869.81;;;5.83;55.93
37206;BME280;23099;42.636;23.198;2023-04-27T05:29:37;91878.44;;;5.92;60.08
37206;BME280;23099;42.636;23.198;2023-04-27T05:32:04;91879.44;;;6.00;58.25
37206;BME280;23099;42.636;23.198;2023-04-27T05:34:31;91876.97;;;6.07;59.53
37206;BME280;23099;42.636;23.198;2023-04-27T05:36:58;91877.56;;;5.88;58.53
37206;BME280;23099;42.636;23.198;2023-04-27T05:39:24;91884.50;;;5.81;56.02
37206;BME280;23099;42.636;23.198;2023-04-27T05:41:53;91882.22;;;5.91;58.23
37206;BME280;23099;42.636;23.198;2023-04-27T05:44:20;91884.63;;;5.96;59.30
37206;BME280;23099;42.636;23.198;2023-04-27T05:46:49;91887.38;;;6.00;58.01
37206;BME280;23099;42.636;23.198;2023-04-27T05:49:16;91892.13;;;6.07;56.18
37206;BME280;23099;42.636;23.198;2023-04-27T05:51:42;91887.66;;;6.23;58.01
37206;BME280;23099;42.636;23.198;2023-04-27T05:54:09;91895.03;;;6.42;58.59
37206;BME280;23099;42.636;23.198;2023-04-27T05:56:36;91887.69;;;6.51;57.13
37206;BME280;23099;42.636;23.198;2023-04-27T05:59:04;91892.22;;;6.62;57.63
37206;BME280;23099;42.636;23.198;2023-04-27T06:01:31;91891.84;;;6.64;58.86
37206;BME280;23099;42.636;23.198;2023-04-27T06:03:57;91884.09;;;6.71;56.29
37206;BME280;23099;42.636;23.198;2023-04-27T06:06:25;91891.41;;;6.90;55.24
37206;BME280;23099;42.636;23.198;2023-04-27T06:08:53;91893.47;;;6.96;56.55
37206;BME280;23099;42.636;23.198;2023-04-27T06:11:20;91897.19;;;7.07;58.61
37206;BME280;23099;42.636;23.198;2023-04-27T06:13:46;91897.47;;;7.18;58.02
37206;BME280;23099;42.636;23.198;2023-04-27T06:16:14;91897.81;;;7.17;56.33
37206;BME280;23099;42.636;23.198;2023-04-27T06:18:42;91905.16;;;6.80;53.62
37206;BME280;23099;42.636;23.198;2023-04-27T06:21:08;91885.13;;;6.82;54.71
37206;BME280;23099;42.636;23.198;2023-04-27T06:23:35;91881.56;;;6.90;54.45
37206;BME280;23099;42.636;23.198;2023-04-27T06:26:02;91888.16;;;6.96;53.71
37206;BME280;23099;42.636;23.198;2023-04-27T06:28:29;91888.44;;;7.07;55.86
37206;BME280;23099;42.636;23.198;2023-04-27T06:30:56;91894.94;;;7.09;54.79
37206;BME280;23099;42.636;23.198;2023-04-27T06:33:24;91900.97;;;7.06;58.00
37206;BME280;23099;42.636;23.198;2023-04-27T06:35:51;91887.31;;;6.92;53.86
37206;BME280;23099;42.636;23.198;2023-04-27T06:38:17;91894.13;;;7.05;54.17
37206;BME280;23099;42.636;23.198;2023-04-27T06:40:44;91894.25;;;6.97;53.88
37206;BME280;23099;42.636;23.198;2023-04-27T06:43:11;91887.16;;;7.01;56.05
37206;BME280;23099;42.636;23.198;2023-04-27T06:45:37;91887.91;;;7.01;55.55
37206;BME280;23099;42.636;23.198;2023-04-27T06:48:04;91872.56;;;6.95;55.04
37206;BME280;23099;42.636;23.198;2023-04-27T06:50:32;91884.03;;;6.83;54.71
37206;BME280;23099;42.636;23.198;2023-04-27T06:52:59;91878.84;;;7.02;55.60
37206;BME280;23099;42.636;23.198;2023-04-27T06:55:26;91874.66;;;7.17;55.41
37206;BME280;23099;42.636;23.198;2023-04-27T06:57:52;91879.09;;;7.13;52.16
37206;BME280;23099;42.636;23.198;2023-04-27T07:00:20;91876.97;;;7.19;54.82
37206;BME280;23099;42.636;23.198;2023-04-27T07:02:47;91886.75;;;7.30;54.94
37206;BME280;23099;42.636;23.198;2023-04-27T07:05:14;91885.38;;;7.21;55.72
37206;BME280;23099;42.636;23.198;2023-04-27T07:07:42;91875.25;;;7.26;54.71
37206;BME280;23099;42.636;23.198;2023-04-27T07:10:09;91865.91;;;7.17;53.91
37206;BME280;23099;42.636;23.198;2023-04-27T07:12:36;91875.59;;;7.25;54.24
37206;BME280;23099;42.636;23.198;2023-04-27T07:15:03;91871.22;;;7.17;55.10
37206;BME280;23099;42.636;23.198;2023-04-27T07:17:30;91877.81;;;7.23;56.02
37206;BME280;23099;42.636;23.198;2023-04-27T07:19:57;91879.31;;;7.20;52.83
37206;BME280;23099;42.636;23.198;2023-04-27T07:22:24;91872.06;;;7.05;54.24
37206;BME280;23099;42.636;23.198;2023-04-27T07:24:52;91869.50;;;7.08;52.13
37206;BME280;23099;42.636;23.198;2023-04-27T07:27:19;91867.81;;;7.16;52.67
37206;BME280;23099;42.636;23.198;2023-04-27T07:29:46;91874.75;;;7.21;50.35
37206;BME280;23099;42.636;23.198;2023-04-27T07:32:13;91870.97;;;7.22;50.37
37206;BME280;23099;42.636;23.198;2023-04-27T07:34:40;91872.59;;;7.26;51.74
37206;BME280;23099;42.636;23.198;2023-04-27T07:37:08;91877.91;;;7.26;50.83
37206;BME280;23099;42.636;23.198;2023-04-27T07:39:35;91875.00;;;7.31;53.86
37206;BME280;23099;42.636;23.198;2023-04-27T07:42:03;91879.91;;;7.29;53.16
37206;BME280;23099;42.636;23.198;2023-04-27T07:44:30;91882.66;;;7.33;51.25
37206;BME280;23099;42.636;23.198;2023-04-27T07:46:56;91876.97;;;7.19;52.52
37206;BME280;23099;42.636;23.198;2023-04-27T07:49:23;91878.69;;;7.27;53.41
37206;BME280;23099;42.636;23.198;2023-04-27T07:51:50;91879.66;;;7.34;53.20
37206;BME280;23099;42.636;23.198;2023-04-27T07:54:17;91872.50;;;7.23;52.63
37206;BME280;23099;42.636;23.198;2023-04-27T07:56:44;91865.75;;;7.41;52.41
37206;BME280;23099;42.636;23.198;2023-04-27T07:59:12;91873.28;;;7.55;51.86
37206;BME280;23099;42.636;23.198;2023-04-27T08:01:39;91876.56;;;7.64;53.12
37206;BME280;23099;42.636;23.198;2023-04-27T08:04:06;91877.38;;;7.84;51.01
37206;BME280;23099;42.636;23.198;2023-04-27T08:06:33;91879.88;;;7.92;52.37
37206;BME280;23099;42.636;23.198;2023-04-27T08:09:00;91875.03;;;7.98;50.76
37206;BME280;23099;42.636;23.198;2023-04-27T08:11:28;91867.28;;;8.08;49.89
37206;BME280;23099;42.636;23.198;2023-04-27T08:13:55;91870.53;;;8.18;51.10
37206;BME280;23099;42.636;23.198;2023-04-27T08:16:23;91884.38;;;8.42;49.20
37206;BME280;23099;42.636;23.198;2023-04-27T08:18:49;91872.19;;;8.41;48.34
37206;BME280;23099;42.636;23.198;2023-04-27T08:21:16;91869.47;;;8.57;50.13
37206;BME280;23099;42.636;23.198;2023-04-27T08:23:43;91878.72;;;8.63;47.56
37206;BME280;23099;42.636;23.198;2023-04-27T08:26:13;91872.63;;;8.63;49.13
37206;BME280;23099;42.636;23.198;2023-04-27T08:28:40;91876.34;;;8.77;48.84
37206;BME280;23099;42.636;23.198;2023-04-27T08:31:06;91864.09;;;8.96;51.57
37206;BME280;23099;42.636;23.198;2023-04-27T08:33:34;91876.09;;;9.05;49.52
37206;BME280;23099;42.636;23.198;2023-04-27T08:36:01;91874.25;;;9.09;48.82
37206;BME280;23099;42.636;23.198;2023-04-27T08:38:28;91877.13;;;9.20;49.01
37206;BME280;23099;42.636;23.198;2023-04-27T08:40:54;91875.78;;;9.30;46.06
37206;BME280;23099;42.636;23.198;2023-04-27T08:43:21;91883.53;;;9.38;47.56
37206;BME280;23099;42.636;23.198;2023-04-27T08:45:48;91878.34;;;9.45;45.71
37206;BME280;23099;42.636;23.198;2023-04-27T08:48:16;91880.56;;;9.43;47.65
37206;BME280;23099;42.636;23.198;2023-04-27T08:50:45;91875.34;;;9.28;46.96
37206;BME280;23099;42.636;23.198;2023-04-27T08:53:16;91874.47;;;9.20;46.41
37206;BME280;23099;42.636;23.198;2023-04-27T08:55:43;91888.56;;;9.20;48.10
37206;BME280;23099;42.636;23.198;2023-04-27T08:58:10;91885.06;;;9.16;47.57
37206;BME280;23099;42.636;23.198;2023-04-27T09:00:38;91884.47;;;9.04;44.78
37206;BME280;23099;42.636;23.198;2023-04-27T09:03:06;91886.97;;;9.16;48.00
37206;BME280;23099;42.636;23.198;2023-04-27T09:05:33;91874.06;;;9.18;45.26
37206;BME280;23099;42.636;23.198;2023-04-27T09:08:03;91869.31;;;9.31;47.13
37206;BME280;23099;42.636;23.198;2023-04-27T09:10:43;91874.84;;;9.64;46.86
37206;BME280;23099;42.636;23.198;2023-04-27T09:13:09;91881.41;;;9.70;45.90
37206;BME280;23099;42.636;23.198;2023-04-27T09:15:47;91873.03;;;9.72;44.49
37206;BME280;23099;42.636;23.198;2023-04-27T09:18:15;91876.69;;;9.86;48.99
37206;BME280;23099;42.636;23.198;2023-04-27T09:20:42;91887.22;;;9.76;45.39
37206;BME280;23099;42.636;23.198;2023-04-27T09:23:11;91880.44;;;9.82;42.78
37206;BME280;23099;42.636;23.198;2023-04-27T09:25:38;91868.97;;;9.81;41.99
37206;BME280;23099;42.636;23.198;2023-04-27T09:28:06;91865.16;;;10.05;43.74
37206;BME280;23099;42.636;23.198;2023-04-27T09:30:33;91860.88;;;10.23;44.73
37206;BME280;23099;42.636;23.198;2023-04-27T09:33:01;91868.25;;;10.34;44.36
37206;BME280;23099;42.636;23.198;2023-04-27T09:35:28;91862.41;;;10.54;43.91
37206;BME280;23099;42.636;23.198;2023-04-27T09:37:55;91861.31;;;10.89;43.68
37206;BME280;23099;42.636;23.198;2023-04-27T09:40:23;91856.47;;;11.02;41.61
37206;BME280;23099;42.636;23.198;2023-04-27T09:42:52;91850.91;;;11.17;43.02
37206;BME280;23099;42.636;23.198;2023-04-27T09:45:19;91856.72;;;11.26;41.03
37206;BME280;23099;42.636;23.198;2023-04-27T09:47:46;91851.94;;;11.06;40.54
37206;BME280;23099;42.636;23.198;2023-04-27T09:50:13;91841.50;;;10.97;42.13
37206;BME280;23099;42.636;23.198;2023-04-27T09:52:39;91856.72;;;10.89;42.14
37206;BME280;23099;42.636;23.198;2023-04-27T09:55:06;91847.31;;;10.69;43.08
37206;BME280;23099;42.636;23.198;2023-04-27T09:57:36;91844.81;;;10.83;44.57
37206;BME280;23099;42.636;23.198;2023-04-27T10:00:08;91846.28;;;11.14;40.46
37206;BME280;23099;42.636;23.198;2023-04-27T10:02:38;91842.16;;;11.20;41.02
37206;BME280;23099;42.636;23.198;2023-04-27T10:05:15;91834.19;;;11.27;41.04
37206;BME280;23099;42.636;23.198;2023-04-27T10:07:47;91839.13;;;11.66;40.82
37206;BME280;23099;42.636;23.198;2023-04-27T10:10:14;91847.38;;;11.47;37.94
37206;BME280;23099;42.636;23.198;2023-04-27T10:12:43;91838.56;;;11.46;38.43
37206;BME280;23099;42.636;23.198;2023-04-27T10:15:23;91839.72;;;11.45;41.32
37206;BME280;23099;42.636;23.198;2023-04-27T10:17:50;91845.41;;;11.81;41.94
37206;BME280;23099;42.636;23.198;2023-04-27T10:20:27;91846.78;;;12.15;36.63
37206;BME280;23099;42.636;23.198;2023-04-27T10:22:54;91817.81;;;12.42;36.68
37206;BME280;23099;42.636;23.198;2023-04-27T10:25:22;91829.91;;;12.91;37.23
37206;BME280;23099;42.636;23.198;2023-04-27T10:27:51;91823.75;;;12.80;36.84
37206;BME280;23099;42.636;23.198;2023-04-27T10:30:17;91821.28;;;12.43;37.53
37206;BME280;23099;42.636;23.198;2023-04-27T10:32:51;91832.88;;;11.99;38.04
37206;BME280;23099;42.636;23.198;2023-04-27T10:35:18;91835.13;;;11.90;37.75
37206;BME280;23099;42.636;23.198;2023-04-27T10:37:45;91834.22;;;11.75;40.49
37206;BME280;23099;42.636;23.198;2023-04-27T10:40:12;91838.59;;;11.50;38.11
37206;BME280;23099;42.636;23.198;2023-04-27T10:42:39;91830.94;;;11.48;40.70
37206;BME280;23099;42.636;23.198;2023-04-27T10:45:07;91835.44;;;11.37;41.00
37206;BME280;23099;42.636;23.198;2023-04-27T10:47:38;91832.00;;;11.37;37.93
37206;BME280;23099;42.636;23.198;2023-04-27T10:50:05;91830.06;;;11.33;36.84
37206;BME280;23099;42.636;23.198;2023-04-27T10:52:32;91812.31;;;11.62;38.23
37206;BME280;23099;42.636;23.198;2023-04-27T10:55:03;91824.97;;;12.17;35.70
37206;BME280;23099;42.636;23.198;2023-04-27T10:57:30;91826.09;;;12.16;34.97
37206;BME280;23099;42.636;23.198;2023-04-27T10:59:56;91833.59;;;11.89;35.36
37206;BME280;23099;42.636;23.198;2023-04-27T11:02:27;91827.06;;;11.83;34.54
37206;BME280;23099;42.636;23.198;2023-04-27T11:04:54;91823.66;;;11.89;36.28
37206;BME280;23099;42.636;23.198;2023-04-27T11:07:24;91823.63;;;11.86;39.05
37206;BME280;23099;42.636;23.198;2023-04-27T11:09:51;91825.41;;;11.75;38.97
37206;BME280;23099;42.636;23.198;2023-04-27T11:12:18;91828.63;;;11.47;39.02
37206;BME280;23099;42.636;23.198;2023-04-27T11:14:44;91823.69;;;11.49;39.82
37206;BME280;23099;42.636;23.198;2023-04-27T11:17:11;91822.44;;;11.83;39.04
37206;BME280;23099;42.636;23.198;2023-04-27T11:19:45;91815.91;;;12.35;33.84
37206;BME280;23099;42.636;23.198;2023-04-27T11:22:12;91813.69;;;12.59;38.89
37206;BME280;23099;42.636;23.198;2023-04-27T11:24:45;91821.88;;;12.94;36.92
37206;BME280;23099;42.636;23.198;2023-04-27T11:27:12;91820.66;;;12.67;34.87
37206;BME280;23099;42.636;23.198;2023-04-27T11:29:38;91828.97;;;12.48;38.22
37206;BME280;23099;42.636;23.198;2023-04-27T11:32:05;91825.56;;;12.54;37.36
37206;BME280;23099;42.636;23.198;2023-04-27T11:34:32;91825.34;;;13.02;37.77
37206;BME280;23099;42.636;23.198;2023-04-27T11:37:04;91827.41;;;13.40;34.39
37206;BME280;23099;42.636;23.198;2023-04-27T11:39:32;91822.78;;;13.48;37.56
37206;BME280;23099;42.636;23.198;2023-04-27T11:42:12;91815.50;;;13.63;36.43
37206;BME280;23099;42.636;23.198;2023-04-27T11:44:39;91822.81;;;13.84;35.81
37206;BME280;23099;42.636;23.198;2023-04-27T11:47:05;91835.44;;;13.40;35.59
37206;BME280;23099;42.636;23.198;2023-04-27T11:49:33;91850.66;;;12.97;37.33
37206;BME280;23099;42.636;23.198;2023-04-27T11:51:59;91843.28;;;12.80;36.35
37206;BME280;23099;42.636;23.198;2023-04-27T11:54:28;91833.59;;;12.58;37.12
37206;BME280;23099;42.636;23.198;2023-04-27T11:57:02;91836.66;;;12.56;37.19
37206;BME280;23099;42.636;23.198;2023-04-27T11:59:29;91838.22;;;12.61;35.77
37206;BME280;23099;42.636;23.198;2023-04-27T12:01:55;91842.50;;;12.69;35.50
37206;BME280;23099;42.636;23.198;2023-04-27T12:04:22;91840.25;;;12.82;35.32
37206;BME280;23099;42.636;23.198;2023-04-27T12:06:48;91845.25;;;12.90;35.93
37206;BME280;23099;42.636;23.198;2023-04-27T12:09:15;91845.59;;;12.82;35.58
37206;BME280;23099;42.636;23.198;2023-04-27T12:11:43;91844.06;;;12.81;34.69
37206;BME280;23099;42.636;23.198;2023-04-27T12:14:10;91850.03;;;12.49;37.72
37206;BME280;23099;42.636;23.198;2023-04-27T12:16:37;91865.63;;;12.26;38.65
37206;BME280;23099;42.636;23.198;2023-04-27T12:19:03;91864.41;;;12.20;39.64
37206;BME280;23099;42.636;23.198;2023-04-27T12:21:30;91865.13;;;12.10;38.69
37206;BME280;23099;42.636;23.198;2023-04-27T12:23:58;91862.34;;;11.95;39.80
37206;BME280;23099;42.636;23.198;2023-04-27T12:26:24;91862.09;;;11.70;38.31
37206;BME280;23099;42.636;23.198;2023-04-27T12:28:52;91851.16;;;11.86;39.10
37206;BME280;23099;42.636;23.198;2023-04-27T12:31:18;91864.59;;;11.90;39.97
37206;BME280;23099;42.636;23.198;2023-04-27T12:33:48;91856.22;;;11.95;38.65
37206;BME280;23099;42.636;23.198;2023-04-27T12:36:15;91850.19;;;12.12;38.35
37206;BME280;23099;42.636;23.198;2023-04-27T12:38:41;91852.81;;;12.01;37.48
37206;BME280;23099;42.636;23.198;2023-04-27T12:41:08;91850.13;;;12.01;37.97
37206;BME280;23099;42.636;23.198;2023-04-27T12:43:34;91854.84;;;12.19;37.87
37206;BME280;23099;42.636;23.198;2023-04-27T12:46:03;91854.22;;;12.43;38.04
37206;BME280;23099;42.636;23.198;2023-04-27T12:48:30;91859.59;;;12.47;39.34
37206;BME280;23099;42.636;23.198;2023-04-27T12:50:57;91853.94;;;12.62;37.83
37206;BME280;23099;42.636;23.198;2023-04-27T12:53:23;91842.53;;;12.87;38.59
37206;BME280;23099;42.636;23.198;2023-04-27T12:55:50;91846.06;;;12.98;38.62
37206;BME280;23099;42.636;23.198;2023-04-27T12:58:17;91846.44;;;13.07;37.69
37206;BME280;23099;42.636;23.198;2023-04-27T13:00:44;91852.25;;;13.20;36.91
37206;BME280;23099;42.636;23.198;2023-04-27T13:03:11;91848.84;;;13.26;38.66
37206;BME280;23099;42.636;23.198;2023-04-27T13:05:38;91852.28;;;13.23;38.22
37206;BME280;23099;42.636;23.198;2023-04-27T13:08:04;91854.22;;;13.37;37.58
37206;BME280;23099;42.636;23.198;2023-04-27T13:10:31;91852.28;;;13.23;36.39
37206;BME280;23099;42.636;23.198;2023-04-27T13:12:57;91846.56;;;13.42;37.94
37206;BME280;23099;42.636;23.198;2023-04-27T13:15:25;91848.00;;;13.08;36.63
37206;BME280;23099;42.636;23.198;2023-04-27T13:17:51;91848.03;;;13.15;37.09
37206;BME280;23099;42.636;23.198;2023-04-27T13:20:20;91843.72;;;13.00;34.23
37206;BME280;23099;42.636;23.198;2023-04-27T13:22:46;91844.13;;;13.02;35.07
37206;BME280;23099;42.636;23.198;2023-04-27T13:25:13;91843.41;;;13.12;36.62
37206;BME280;23099;42.636;23.198;2023-04-27T13:27:40;91841.84;;;12.97;35.92
37206;BME280;23099;42.636;23.198;2023-04-27T13:30:07;91842.16;;;12.88;36.33
37206;BME280;23099;42.636;23.198;2023-04-27T13:32:34;91843.59;;;12.64;36.40
37206;BME280;23099;42.636;23.198;2023-04-27T13:35:00;91840.56;;;12.66;37.58
37206;BME280;23099;42.636;23.198;2023-04-27T13:37:29;91843.31;;;12.87;37.83
37206;BME280;23099;42.636;23.198;2023-04-27T13:39:55;91847.56;;;12.99;39.22
37206;BME280;23099;42.636;23.198;2023-04-27T13:42:22;91845.66;;;13.03;35.98
37206;BME280;23099;42.636;23.198;2023-04-27T13:44:53;91842.09;;;12.70;37.07
37206;BME280;23099;42.636;23.198;2023-04-27T13:47:19;91840.59;;;12.77;37.29
37206;BME280;23099;42.636;23.198;2023-04-27T13:49:46;91844.78;;;12.67;37.06
37206;BME280;23099;42.636;23.198;2023-04-27T13:52:12;91847.53;;;12.92;37.00
37206;BME280;23099;42.636;23.198;2023-04-27T13:54:40;91853.31;;;12.94;36.32
37206;BME280;23099;42.636;23.198;2023-04-27T13:57:07;91843.78;;;13.14;36.11
37206;BME280;23099;42.636;23.198;2023-04-27T13:59:33;91847.31;;;13.32;34.77
37206;BME280;23099;42.636;23.198;2023-04-27T14:02:00;91843.50;;;13.40;36.59
37206;BME280;23099;42.636;23.198;2023-04-27T14:04:26;91856.81;;;13.12;37.14
37206;BME280;23099;42.636;23.198;2023-04-27T14:06:52;91850.28;;;13.13;37.25
37206;BME280;23099;42.636;23.198;2023-04-27T14:09:19;91856.44;;;13.10;36.62
37206;BME280;23099;42.636;23.198;2023-04-27T14:11:49;91857.94;;;13.07;35.85
37206;BME280;23099;42.636;23.198;2023-04-27T14:14:16;91861.31;;;12.83;37.46
37206;BME280;23099;42.636;23.198;2023-04-27T14:16:42;91871.91;;;12.58;35.81
37206;BME280;23099;42.636;23.198;2023-04-27T14:19:08;91863.16;;;12.68;36.34
37206;BME280;23099;42.636;23.198;2023-04-27T14:21:38;91868.13;;;12.66;35.51
37206;BME280;23099;42.636;23.198;2023-04-27T14:24:05;91873.72;;;12.36;36.95
37206;BME280;23099;42.636;23.198;2023-04-27T14:26:31;91881.63;;;12.19;37.28
37206;BME280;23099;42.636;23.198;2023-04-27T14:28:59;91882.84;;;12.25;37.82
37206;BME280;23099;42.636;23.198;2023-04-27T14:31:26;91883.84;;;12.06;36.84
37206;BME280;23099;42.636;23.198;2023-04-27T14:33:53;91885.00;;;12.09;36.58
37206;BME280;23099;42.636;23.198;2023-04-27T14:36:20;91896.78;;;12.00;36.52
37206;BME280;23099;42.636;23.198;2023-04-27T14:38:47;91892.72;;;11.73;39.34
37206;BME280;23099;42.636;23.198;2023-04-27T14:41:13;91897.25;;;11.69;37.48
37206;BME280;23099;42.636;23.198;2023-04-27T14:43:40;91904.28;;;11.77;36.57
37206;BME280;23099;42.636;23.198;2023-04-27T14:46:10;91899.00;;;11.88;38.17
37206;BME280;23099;42.636;23.198;2023-04-27T14:48:36;91896.03;;;11.96;36.69
37206;BME280;23099;42.636;23.198;2023-04-27T14:51:03;91887.47;;;11.80;36.57
37206;BME280;23099;42.636;23.198;2023-04-27T14:53:30;91897.09;;;11.88;38.14
37206;BME280;23099;42.636;23.198;2023-04-27T14:55:56;91896.78;;;12.00;38.97
37206;BME280;23099;42.636;23.198;2023-04-27T14:58:23;91904.53;;;12.13;35.39
37206;BME280;23099;42.636;23.198;2023-04-27T15:00:49;91907.91;;;12.02;35.59
37206;BME280;23099;42.636;23.198;2023-04-27T15:03:17;91893.44;;;12.11;37.48
37206;BME280;23099;42.636;23.198;2023-04-27T15:05:44;91912.69;;;12.23;37.30
37206;BME280;23099;42.636;23.198;2023-04-27T15:08:10;91913.31;;;12.06;37.70
37206;BME280;23099;42.636;23.198;2023-04-27T15:10:37;91911.25;;;11.89;38.63
37206;BME280;23099;42.636;23.198;2023-04-27T15:13:03;91920.38;;;11.81;40.02
37206;BME280;23099;42.636;23.198;2023-04-27T15:15:30;91920.44;;;11.54;38.82
37206;BME280;23099;42.636;23.198;2023-04-27T15:17:57;91916.69;;;11.59;38.19
37206;BME280;23099;42.636;23.198;2023-04-27T15:20:25;91924.75;;;11.62;37.82
37206;BME280;23099;42.636;23.198;2023-04-27T15:22:51;91917.28;;;11.79;38.45
37206;BME280;23099;42.636;23.198;2023-04-27T15:25:18;91920.00;;;11.82;37.89
37206;BME280;23099;42.636;23.198;2023-04-27T15:27:44;91923.47;;;11.83;38.47
37206;BME280;23099;42.636;23.198;2023-04-27T15:30:11;91925.31;;;11.79;38.11
37206;BME280;23099;42.636;23.198;2023-04-27T15:32:38;91926.88;;;11.80;38.99
37206;BME280;23099;42.636;23.198;2023-04-27T15:35:05;91934.00;;;11.68;38.91
37206;BME280;23099;42.636;23.198;2023-04-27T15:37:34;91936.19;;;11.22;38.08
37206;BME280;23099;42.636;23.198;2023-04-27T15:40:01;91931.94;;;11.18;38.98
37206;BME280;23099;42.636;23.198;2023-04-27T15:42:27;91941.63;;;10.96;38.20
37206;BME280;23099;42.636;23.198;2023-04-27T15:44:54;91938.34;;;11.10;39.54
37206;BME280;23099;42.636;23.198;2023-04-27T15:47:21;91945.97;;;11.08;39.79
37206;BME280;23099;42.636;23.198;2023-04-27T15:49:47;91942.88;;;11.06;39.02
37206;BME280;23099;42.636;23.198;2023-04-27T15:52:14;91948.47;;;10.93;39.60
37206;BME280;23099;42.636;23.198;2023-04-27T15:54:42;91950.47;;;11.04;39.48
37206;BME280;23099;42.636;23.198;2023-04-27T15:57:08;91947.13;;;11.10;40.17
37206;BME280;23099;42.636;23.198;2023-04-27T15:59:35;91949.66;;;10.99;38.30
37206;BME280;23099;42.636;23.198;2023-04-27T16:02:01;91961.19;;;11.04;39.25
37206;BME280;23099;42.636;23.198;2023-04-27T16:04:28;91944.72;;;10.72;38.80
37206;BME280;23099;42.636;23.198;2023-04-27T16:06:54;91954.59;;;10.68;40.94
37206;BME280;23099;42.636;23.198;2023-04-27T16:09:21;91956.53;;;10.67;39.42
37206;BME280;23099;42.636;23.198;2023-04-27T16:11:49;91960.28;;;10.36;40.02
37206;BME280;23099;42.636;23.198;2023-04-27T16:14:16;91958.41;;;10.40;39.60
37206;BME280;23099;42.636;23.198;2023-04-27T16:16:42;91969.81;;;10.63;39.86
37206;BME280;23099;42.636;23.198;2023-04-27T16:19:10;91965.28;;;10.68;38.87
37206;BME280;23099;42.636;23.198;2023-04-27T16:21:36;91972.63;;;10.74;38.05
37206;BME280;23099;42.636;23.198;2023-04-27T16:24:03;91978.28;;;10.69;41.48
37206;BME280;23099;42.636;23.198;2023-04-27T16:26:29;91976.25;;;10.59;39.84
37206;BME280;23099;42.636;23.198;2023-04-27T16:28:58;91981.66;;;10.62;42.28
37206;BME280;23099;42.636;23.198;2023-04-27T16:31:24;91984.94;;;10.52;41.26
37206;BME280;23099;42.636;23.198;2023-04-27T16:33:51;91982.72;;;10.58;40.81
37206;BME280;23099;42.636;23.198;2023-04-27T16:36:17;91992.34;;;10.62;40.82
37206;BME280;23099;42.636;23.198;2023-04-27T16:38:44;91982.44;;;10.40;42.12
37206;BME280;23099;42.636;23.198;2023-04-27T16:41:10;91988.66;;;10.21;43.44
37206;BME280;23099;42.636;23.198;2023-04-27T16:43:37;91998.47;;;10.17;42.96
37206;BME280;23099;42.636;23.198;2023-04-27T16:46:05;91992.31;;;10.13;41.96
37206;BME280;23099;42.636;23.198;2023-04-27T16:48:32;92002.56;;;10.11;43.19
37206;BME280;23099;42.636;23.198;2023-04-27T16:50:59;92008.41;;;10.17;43.74
37206;BME280;23099;42.636;23.198;2023-04-27T16:53:25;92013.97;;;10.08;43.23
37206;BME280;23099;42.636;23.198;2023-04-27T16:55:52;92017.72;;;10.04;43.25
37206;BME280;23099;42.636;23.198;2023-04-27T16:58:18;92010.56;;;9.66;44.29
37206;BME280;23099;42.636;23.198;2023-04-27T17:00:45;92019.00;;;9.29;44.78
37206;BME280;23099;42.636;23.198;2023-04-27T17:03:13;92018.13;;;9.21;43.70
37206;BME280;23099;42.636;23.198;2023-04-27T17:05:39;92018.66;;;9.31;44.86
37206;BME280;23099;42.636;23.198;2023-04-27T17:08:06;92021.41;;;9.34;45.27
37206;BME280;23099;42.636;23.198;2023-04-27T17:10:32;92025.13;;;9.30;46.60
37206;BME280;23099;42.636;23.198;2023-04-27T17:13:01;92030.88;;;9.12;45.68
37206;BME280;23099;42.636;23.198;2023-04-27T17:15:27;92024.91;;;9.19;45.58
37206;BME280;23099;42.636;23.198;2023-04-27T17:17:54;92025.75;;;9.23;46.03
37206;BME280;23099;42.636;23.198;2023-04-27T17:20:22;92031.03;;;9.19;47.20
37206;BME280;23099;42.636;23.198;2023-04-27T17:22:48;92032.63;;;9.24;45.68